Time;durP1;ratioP1;P1;durP2;ratioP2;P2;SDS_P1;SDS_P2;PMS_P1;PMS_P2;Temp;Humidity;BMP_temperature;BMP_pressure;BME280_temperature;BME280_humidity;BME280_pressure;Samples;Min_cycle;Max_cycle;Signal;HPM_P1;HPM_P2
2024/04/01 00:00:29;;;;;;;;;0.75;0.00;;;;;-143.90;48.74;73617.84;4895460;28;102224;-74
2024/04/01 00:02:55;;;;;;;;;1.00;1.00;;;;;-143.90;48.67;73613.72;4889026;28;102680;-74
2024/04/01 00:05:20;;;;;;;;;1.50;1.00;;;;;-143.90;48.86;73617.84;4899924;28;104585;-74
2024/04/01 00:07:48;;;;;;;;;2.00;1.25;;;;;-143.90;48.56;73626.09;4897450;28;102157;-75
2024/04/01 00:10:14;;;;;;;;;5.75;1.25;;;;;-143.90;48.76;73617.84;4895293;28;102003;-74
2024/04/01 00:12:41;;;;;;;;;2.75;1.50;;;;;-143.90;48.76;73621.97;4893705;28;102162;-75
2024/04/01 00:15:06;;;;;;;;;4.00;1.25;;;;;-143.90;48.87;73626.09;4889612;28;105062;-75
2024/04/01 00:17:32;;;;;;;;;1.00;0.00;;;;;-143.90;49.40;73630.25;4894866;28;102991;-74
2024/04/01 00:19:58;;;;;;;;;2.50;0.75;;;;;-143.90;49.59;73636.44;4903693;28;102981;-75
2024/04/01 00:22:23;;;;;;;;;2.50;1.25;;;;;-143.90;49.56;73640.56;4892410;28;102459;-74
2024/04/01 00:24:49;;;;;;;;;0.75;0.00;;;;;-143.90;49.89;73634.38;4886031;28;104465;-74
2024/04/01 00:27:15;;;;;;;;;1.00;1.00;;;;;-143.90;50.14;73642.63;4897431;28;102443;-74
2024/04/01 00:29:40;;;;;;;;;0.25;0.00;;;;;-143.90;50.22;73640.56;4902234;28;102173;-74
2024/04/01 00:32:06;;;;;;;;;4.00;1.00;;;;;-143.90;50.42;73642.63;4898270;28;104879;-74
2024/04/01 00:34:32;;;;;;;;;2.00;0.50;;;;;-143.90;50.39;73650.91;4898751;28;104551;-74
2024/04/01 00:36:57;;;;;;;;;0.00;0.00;;;;;-143.90;51.24;73655.03;4882315;28;102495;-73
2024/04/01 00:39:23;;;;;;;;;1.50;0.50;;;;;-143.90;51.52;73661.25;4909958;28;104043;-74
2024/04/01 00:41:48;;;;;;;;;1.25;0.00;;;;;-143.90;51.71;73665.38;4897238;28;102159;-72
2024/04/01 00:44:14;;;;;;;;;1.00;0.00;;;;;-143.90;51.92;73679.84;4895887;28;104529;-74
2024/04/01 00:46:40;;;;;;;;;1.00;1.00;;;;;-143.90;52.38;73686.03;4887456;28;103562;-72
2024/04/01 00:49:06;;;;;;;;;1.00;1.00;;;;;-143.90;52.89;73692.25;4874182;28;102507;-73
2024/04/01 00:51:32;;;;;;;;;1.00;0.75;;;;;-143.90;54.17;73704.63;4894517;28;102272;-73
2024/04/01 00:53:59;;;;;;;;;0.00;0.00;;;;;-143.90;53.94;73723.22;4901831;28;109357;-73
2024/04/01 00:56:26;;;;;;;;;0.00;0.00;;;;;-143.90;54.25;73721.16;4879162;28;103780;-74
2024/04/01 00:58:53;;;;;;;;;0.00;0.00;;;;;-143.90;54.31;73735.63;4881549;28;102326;-73
2024/04/01 01:01:20;;;;;;;;;0.75;0.75;;;;;-143.90;53.82;73748.03;4885734;28;102509;-73
2024/04/01 01:03:46;;;;;;;;;1.00;0.00;;;;;-143.90;54.07;73752.16;4876867;28;104948;-73
2024/04/01 01:06:20;;;;;;;;;0.00;0.00;;;;;-143.90;54.83;73766.63;4893544;28;102808;-74
2024/04/01 01:08:46;;;;;;;;;1.25;0.00;;;;;-143.90;56.21;73768.69;4898850;28;102787;-73
2024/04/01 01:11:13;;;;;;;;;0.00;0.00;;;;;-143.90;56.36;73768.69;4880863;28;102465;-74
2024/04/01 01:13:39;;;;;;;;;1.00;0.00;;;;;-143.90;56.63;73770.78;4893804;28;104577;-74
2024/04/01 01:16:05;;;;;;;;;1.25;0.00;;;;;-143.90;56.69;73781.09;4890055;28;102073;-73
2024/04/01 01:18:31;;;;;;;;;0.00;0.00;;;;;-143.90;56.79;73783.16;4892260;28;102092;-73
2024/04/01 01:20:57;;;;;;;;;1.50;0.00;;;;;-143.90;56.33;73799.69;4879011;28;102204;-74
2024/04/01 01:23:23;;;;;;;;;0.00;0.00;;;;;-143.90;57.24;73797.63;4887900;28;104508;-73
2024/04/01 01:25:48;;;;;;;;;0.00;0.00;;;;;-143.90;56.88;73807.97;4889086;28;102812;-73
2024/04/01 01:28:14;;;;;;;;;0.00;0.00;;;;;-143.90;57.84;73816.25;4879344;28;104001;-74
2024/04/01 01:30:40;;;;;;;;;0.25;0.25;;;;;-143.90;56.76;73810.03;4876445;28;102254;-74
2024/04/01 01:33:07;;;;;;;;;0.00;0.00;;;;;-143.90;57.48;73814.16;4884557;28;105307;-73
2024/04/01 01:35:35;;;;;;;;;0.25;0.25;;;;;-143.90;57.68;73820.38;4892930;28;102398;-73
2024/04/01 01:38:02;;;;;;;;;0.00;0.00;;;;;-143.90;57.63;73822.44;4896571;28;102038;-73
2024/04/01 01:40:28;;;;;;;;;0.00;0.00;;;;;-143.90;58.01;73820.38;4898272;28;102482;-73
2024/04/01 01:42:54;;;;;;;;;3.00;1.00;;;;;-143.90;57.94;73812.09;4892651;28;104499;-74
2024/04/01 01:45:19;;;;;;;;;0.75;0.50;;;;;-143.90;57.89;73801.78;4900431;28;102509;-73
2024/04/01 01:47:45;;;;;;;;;2.50;1.75;;;;;-143.90;57.75;73799.69;4899991;28;102276;-72
2024/04/01 01:50:10;;;;;;;;;1.00;1.00;;;;;-143.90;58.23;73799.69;4903322;28;102683;-73
2024/04/01 01:52:36;;;;;;;;;2.00;1.00;;;;;-143.90;57.77;73797.63;4902201;28;102621;-73
2024/04/01 01:55:04;;;;;;;;;1.75;0.25;;;;;-143.90;57.60;73791.44;4897239;28;103722;-73
2024/04/01 01:57:30;;;;;;;;;1.75;0.00;;;;;-143.90;57.51;73797.63;4902384;28;101984;-72
2024/04/01 01:59:56;;;;;;;;;1.00;0.00;;;;;-143.90;57.18;73803.84;4895043;28;103604;-73
2024/04/01 02:02:22;;;;;;;;;5.00;2.00;;;;;-143.90;58.00;73803.84;4899655;28;104522;-73
2024/04/01 02:04:48;;;;;;;;;6.00;4.50;;;;;-143.90;57.89;73814.16;4893396;28;102582;-73
2024/04/01 02:07:14;;;;;;;;;6.50;4.75;;;;;-143.90;57.73;73822.44;4897036;28;103142;-72
2024/04/01 02:09:40;;;;;;;;;3.00;2.00;;;;;-143.90;57.48;73820.38;4907065;28;102324;-74
2024/04/01 02:12:09;;;;;;;;;3.50;3.25;;;;;-143.90;57.90;73834.84;4902897;28;104731;-74
2024/04/01 02:14:38;;;;;;;;;2.50;2.00;;;;;-143.90;58.98;73849.31;4904260;28;102030;-73
2024/04/01 02:17:05;;;;;;;;;3.00;2.00;;;;;-143.90;61.14;73861.69;4890653;28;102586;-73
2024/04/01 02:19:31;;;;;;;;;2.75;2.00;;;;;-143.90;60.42;73863.78;4901690;28;102368;-73
2024/04/01 02:21:57;;;;;;;;;1.75;1.00;;;;;-143.90;61.33;73857.56;4903599;28;104622;-73
2024/04/01 02:24:25;;;;;;;;;2.00;1.00;;;;;-143.90;61.09;73863.78;4898606;28;102533;-73
2024/04/01 02:26:54;;;;;;;;;1.00;1.00;;;;;-143.90;61.34;73853.44;4889751;28;102030;-73
2024/04/01 02:29:20;;;;;;;;;2.00;1.00;;;;;-143.90;61.17;73849.31;4899753;28;103487;-73
2024/04/01 02:31:47;;;;;;;;;1.50;0.50;;;;;-143.90;61.16;73830.69;4903030;28;104614;-73
2024/04/01 02:34:12;;;;;;;;;1.25;0.00;;;;;-143.90;60.57;73824.50;4904544;28;102315;-73
2024/04/01 02:36:38;;;;;;;;;1.00;0.00;;;;;-143.90;59.65;73816.25;4900089;28;102578;-73
2024/04/01 02:39:04;;;;;;;;;0.00;0.00;;;;;-143.90;60.16;73807.97;4894031;28;104170;-73
2024/04/01 02:41:31;;;;;;;;;1.25;1.00;;;;;-143.90;59.27;73814.16;4900050;28;104565;-73
2024/04/01 02:43:57;;;;;;;;;1.50;1.00;;;;;-143.90;59.26;73807.97;4893265;28;102426;-72
2024/04/01 02:46:23;;;;;;;;;0.75;0.00;;;;;-143.90;58.92;73799.69;4899625;28;102247;-73
2024/04/01 02:48:49;;;;;;;;;1.50;0.00;;;;;-143.90;58.88;73795.56;4895475;28;102586;-74
2024/04/01 02:51:14;;;;;;;;;0.25;0.25;;;;;-143.90;58.45;73785.25;4899362;28;104668;-73
2024/04/01 02:53:47;;;;;;;;;1.75;0.75;;;;;-143.90;58.51;73776.97;4897392;28;102006;-74
2024/04/01 02:56:16;;;;;;;;;1.75;1.00;;;;;-143.90;58.40;73766.63;4901291;28;102785;-73
2024/04/01 02:58:43;;;;;;;;;1.00;0.00;;;;;-143.90;58.07;73770.78;4899120;28;102468;-73
2024/04/01 03:01:09;;;;;;;;;1.00;0.00;;;;;-143.90;57.71;73756.31;4897622;28;103600;-74
2024/04/01 03:03:35;;;;;;;;;0.50;0.50;;;;;-143.90;57.72;73756.31;4901636;28;102297;-72
2024/04/01 03:06:01;;;;;;;;;0.00;0.00;;;;;-143.90;58.45;73754.25;4884516;28;104453;-72
2024/04/01 03:08:27;;;;;;;;;1.00;0.00;;;;;-143.90;57.65;73750.09;4901937;28;104664;-73
2024/04/01 03:11:00;;;;;;;;;0.00;0.00;;;;;-143.90;57.96;73745.97;4891472;28;104516;-73
2024/04/01 03:13:27;;;;;;;;;0.00;0.00;;;;;-143.90;58.28;73750.09;4901079;28;102997;-73
2024/04/01 03:15:53;;;;;;;;;0.00;0.00;;;;;-143.90;57.43;73752.16;4903263;28;102593;-73
2024/04/01 03:18:20;;;;;;;;;0.75;0.00;;;;;-143.90;58.16;73750.09;4902865;28;102243;-73
2024/04/01 03:20:46;;;;;;;;;0.75;0.25;;;;;-143.90;58.63;73758.38;4894445;28;105203;-73
2024/04/01 03:23:13;;;;;;;;;0.00;0.00;;;;;-143.90;59.27;73754.25;4895664;28;102694;-72
2024/04/01 03:25:39;;;;;;;;;0.50;0.50;;;;;-143.90;59.09;73758.38;4901148;28;102677;-73
2024/04/01 03:28:05;;;;;;;;;1.25;0.00;;;;;-143.90;59.11;73762.50;4884944;28;102381;-73
2024/04/01 03:30:30;;;;;;;;;1.00;0.25;;;;;-143.90;58.50;73756.31;4904841;28;103148;-73
2024/04/01 03:32:56;;;;;;;;;0.25;0.00;;;;;-143.90;58.41;73745.97;4891762;28;104651;-73
2024/04/01 03:35:21;;;;;;;;;0.00;0.00;;;;;-143.90;58.26;73748.03;4901474;28;102359;-73
2024/04/01 03:37:47;;;;;;;;;1.00;0.00;;;;;-143.90;58.96;73748.03;4905843;28;102483;-73
2024/04/01 03:40:13;;;;;;;;;1.50;1.00;;;;;-143.90;59.00;73735.63;4899058;28;104546;-73
2024/04/01 03:42:38;;;;;;;;;1.50;0.75;;;;;-143.90;58.76;73725.31;4900229;28;102455;-75
2024/04/01 03:45:06;;;;;;;;;1.75;0.00;;;;;-143.90;58.08;73712.91;4888308;28;102337;-73
2024/04/01 03:47:33;;;;;;;;;0.25;0.00;;;;;-143.90;58.75;73717.03;4896747;28;103676;-73
2024/04/01 03:49:58;;;;;;;;;1.00;0.00;;;;;-143.90;58.39;73719.09;4898784;28;102801;-74
2024/04/01 03:52:25;;;;;;;;;1.00;0.00;;;;;-143.90;58.28;73719.09;4887890;28;102422;-73
2024/04/01 03:54:50;;;;;;;;;2.00;1.00;;;;;-143.90;58.16;73717.03;4889981;28;101912;-74
2024/04/01 03:57:16;;;;;;;;;0.25;0.25;;;;;-143.90;57.90;73723.22;4901119;28;102425;-74
2024/04/01 03:59:42;;;;;;;;;0.00;0.00;;;;;-143.90;58.82;73721.16;4903044;28;105107;-73
2024/04/01 04:02:07;;;;;;;;;0.50;0.25;;;;;-143.90;58.40;73727.38;4899509;28;102351;-73
2024/04/01 04:04:33;;;;;;;;;0.00;0.00;;;;;-143.90;58.45;73727.38;4887193;28;102563;-74
2024/04/01 04:06:59;;;;;;;;;3.00;1.25;;;;;-143.90;58.18;73723.22;4891838;28;102131;-74
2024/04/01 04:09:26;;;;;;;;;1.50;0.75;;;;;-143.90;59.09;73719.09;4895674;28;106607;-74
2024/04/01 04:11:52;;;;;;;;;1.00;1.00;;;;;-143.90;58.94;73729.44;4900768;28;102216;-74
2024/04/01 04:14:18;;;;;;;;;2.00;0.25;;;;;-143.90;58.94;73729.44;4901025;28;102552;-74
2024/04/01 04:16:47;;;;;;;;;1.00;1.00;;;;;-143.90;59.30;73727.38;4911374;28;102823;-74
2024/04/01 04:19:17;;;;;;;;;1.00;0.00;;;;;-143.90;58.95;73725.31;4903748;28;104718;-73
2024/04/01 04:21:43;;;;;;;;;0.00;0.00;;;;;-143.90;59.03;73733.56;4903778;28;101994;-73
2024/04/01 04:24:10;;;;;;;;;1.00;1.00;;;;;-143.90;61.46;73663.31;4899002;28;102273;-74
2024/04/01 04:26:36;;;;;;;;;0.00;0.00;;;;;-143.90;57.57;73601.31;4903358;28;102000;-74
2024/04/01 04:29:02;;;;;;;;;2.00;1.00;;;;;-143.90;55.93;73572.38;4888697;28;107543;-74
2024/04/01 04:31:27;;;;;;;;;2.00;1.00;;;;;-143.90;56.00;73539.31;4901547;28;102475;-73
2024/04/01 04:33:53;;;;;;;;;1.75;0.75;;;;;-143.90;54.26;73516.56;4901935;28;103443;-73
2024/04/01 04:36:20;;;;;;;;;1.00;1.00;;;;;-143.90;54.44;73491.78;4898758;28;102996;-73
2024/04/01 04:38:47;;;;;;;;;3.75;1.00;;;;;-143.90;54.02;73469.03;4889022;28;103405;-74
2024/04/01 04:41:16;;;;;;;;;0.75;0.75;;;;;-143.90;53.24;73456.66;4913622;28;102485;-74
2024/04/01 04:43:46;;;;;;;;;1.00;1.00;;;;;-143.90;53.91;73442.19;4900387;28;103570;-73
2024/04/01 04:46:12;;;;;;;;;1.00;1.00;;;;;-143.90;54.58;73415.31;4896644;28;102316;-73
2024/04/01 04:48:44;;;;;;;;;1.00;0.75;;;;;-143.90;53.29;73407.06;4921568;28;104628;-74
2024/04/01 04:51:11;;;;;;;;;2.25;1.00;;;;;-143.90;53.19;73398.78;4897026;28;103059;-73
2024/04/01 04:53:37;;;;;;;;;3.00;1.75;;;;;-143.90;53.98;73376.06;4901969;28;103469;-73
2024/04/01 04:56:04;;;;;;;;;1.25;1.00;;;;;-143.90;52.52;73369.84;4894065;28;103002;-72
2024/04/01 04:58:31;;;;;;;;;3.25;1.00;;;;;-143.90;52.58;73371.91;4901070;28;103437;-73
2024/04/01 05:00:56;;;;;;;;;2.25;2.00;;;;;-143.90;52.48;73382.25;4893284;28;105142;-73
2024/04/01 05:03:22;;;;;;;;;1.50;1.00;;;;;-143.90;53.46;73444.25;4902206;28;104411;-73
2024/04/01 05:05:48;;;;;;;;;5.00;2.00;;;;;-143.90;54.87;73481.44;4901553;28;102201;-74
2024/04/01 05:08:13;;;;;;;;;1.00;1.00;;;;;-143.90;55.53;73497.97;4897074;28;104483;-74
2024/04/01 05:10:39;;;;;;;;;2.00;0.50;;;;;-143.90;56.25;73506.25;4900007;28;103383;-74
2024/04/01 05:13:05;;;;;;;;;0.00;0.00;;;;;-143.90;56.54;73506.25;4891628;28;102190;-74
2024/04/01 05:15:30;;;;;;;;;1.50;1.00;;;;;-143.90;56.18;73510.38;4901733;28;103801;-74
2024/04/01 05:17:56;;;;;;;;;1.75;1.75;;;;;-143.90;56.87;73510.38;4900979;28;104644;-74
2024/04/01 05:20:24;;;;;;;;;2.00;1.00;;;;;-143.90;56.48;73504.19;4904578;28;102040;-73
2024/04/01 05:22:50;;;;;;;;;1.75;1.00;;;;;-143.90;56.60;73491.78;4894787;28;102618;-74
2024/04/01 05:25:15;;;;;;;;;2.00;0.75;;;;;-143.90;56.50;73477.31;4919105;28;102411;-75
2024/04/01 05:27:41;;;;;;;;;5.75;2.50;;;;;-143.90;56.60;73469.03;4907619;28;103234;-74
2024/04/01 05:30:09;;;;;;;;;2.25;1.00;;;;;-143.90;55.97;73456.66;4905788;28;102247;-74
2024/04/01 05:32:35;;;;;;;;;1.00;1.00;;;;;-143.90;55.92;73444.25;4902543;28;102579;-74
2024/04/01 05:35:02;;;;;;;;;3.00;2.00;;;;;-143.90;56.27;73419.44;4900407;28;102796;-74
2024/04/01 05:37:28;;;;;;;;;3.25;1.75;;;;;-143.90;55.19;73404.97;4901660;28;103626;-74
2024/04/01 05:39:54;;;;;;;;;4.00;3.00;;;;;-143.90;55.11;73390.53;4904258;28;102011;-74
2024/04/01 05:42:20;;;;;;;;;3.00;2.00;;;;;-143.90;54.98;73388.44;4901869;28;104200;-73
2024/04/01 05:44:46;;;;;;;;;2.50;2.00;;;;;-143.90;54.71;73378.13;4893065;28;104779;-74
2024/04/01 05:47:12;;;;;;;;;8.25;2.75;;;;;-143.90;54.78;73376.06;4892916;28;104531;-74
2024/04/01 05:49:37;;;;;;;;;1.50;1.25;;;;;-143.90;54.48;73361.59;4903749;28;104456;-74
2024/04/01 05:52:04;;;;;;;;;3.00;3.00;;;;;-143.90;54.29;73353.31;4901446;28;102132;-73
2024/04/01 05:54:30;;;;;;;;;3.00;2.00;;;;;-143.90;53.39;73353.31;4900203;28;103327;-74
2024/04/01 05:56:56;;;;;;;;;3.00;2.00;;;;;-143.90;53.90;73345.06;4886044;28;105996;-73
2024/04/01 05:59:23;;;;;;;;;4.25;2.25;;;;;-143.90;53.63;73343.00;4900858;28;102277;-73
2024/04/01 06:01:49;;;;;;;;;8.25;4.75;;;;;-143.90;52.84;73353.31;4901597;28;102292;-74
2024/04/01 06:04:14;;;;;;;;;6.00;4.25;;;;;-143.90;52.99;73345.06;4902056;28;102405;-73
2024/04/01 06:06:41;;;;;;;;;2.25;2.00;;;;;-143.90;52.82;73349.19;4901705;28;104522;-73
2024/04/01 06:09:06;;;;;;;;;5.00;2.75;;;;;-143.90;53.05;73343.00;4888741;28;102134;-73
2024/04/01 06:11:32;;;;;;;;;3.50;2.00;;;;;-143.90;53.23;73336.78;4903018;28;102202;-73
2024/04/01 06:13:58;;;;;;;;;2.00;1.00;;;;;-143.90;53.09;73349.19;4904348;28;103211;-73
2024/04/01 06:16:23;;;;;;;;;3.00;2.00;;;;;-143.90;53.17;73353.31;4898371;28;104533;-73
2024/04/01 06:18:49;;;;;;;;;3.00;1.33;;;;;-143.90;52.63;73349.19;4893280;28;102000;-74
2024/04/01 06:21:15;;;;;;;;;3.00;1.00;;;;;-143.90;53.34;73340.94;4902104;28;104327;-73
2024/04/01 06:23:41;;;;;;;;;3.00;2.00;;;;;-143.90;53.44;73345.06;4924135;28;105268;-73
2024/04/01 06:26:06;;;;;;;;;1.00;0.00;;;;;-143.90;53.39;73345.06;4900033;28;108968;-73
2024/04/01 06:28:32;;;;;;;;;1.00;0.33;;;;;-143.90;53.26;73345.06;4897932;28;103714;-73
2024/04/01 06:30:58;;;;;;;;;2.67;2.00;;;;;-143.90;53.54;73334.72;4890263;28;104354;-73
2024/04/01 06:33:23;;;;;;;;;3.33;2.00;;;;;-143.90;53.59;73353.31;4902650;28;102640;-73
2024/04/01 06:36:05;;;;;;;;;2.00;2.00;;;;;-143.90;54.47;73345.06;4901913;28;104467;-73
2024/04/01 06:38:33;;;;;;;;;2.67;2.00;;;;;-143.90;54.70;73328.53;4915815;28;103021;-73
2024/04/01 06:40:59;;;;;;;;;3.00;2.00;;;;;-143.90;54.39;73318.19;4865627;28;102936;-73
2024/04/01 06:43:25;;;;;;;;;1.33;1.00;;;;;-143.90;54.72;73295.47;4901072;28;102388;-74
2024/04/01 06:45:55;;;;;;;;;5.67;3.00;;;;;-143.90;54.12;73250.00;4900934;28;104918;-72
2024/04/01 06:48:22;;;;;;;;;2.33;2.00;;;;;-143.90;52.24;73233.47;4900352;28;102125;-73
2024/04/01 06:50:48;;;;;;;;;2.33;1.00;;;;;-143.90;51.66;73196.28;4898836;28;102473;-73
2024/04/01 06:53:16;;;;;;;;;4.00;3.00;;;;;-143.90;50.99;73142.56;4899108;28;103787;-74
2024/04/01 06:55:42;;;;;;;;;4.33;2.67;;;;;-143.90;49.04;73072.28;4902191;28;109454;-73
2024/04/01 06:58:08;;;;;;;;;2.00;2.00;;;;;-143.90;47.04;73010.31;4918106;28;102801;-73
2024/04/01 07:00:34;;;;;;;;;4.00;2.67;;;;;-143.90;47.02;72977.25;4902636;28;102206;-73
2024/04/01 07:02:59;;;;;;;;;4.67;3.33;;;;;-143.90;44.96;72964.84;4888386;28;102246;-73
2024/04/01 07:05:25;;;;;;;;;14.00;7.00;;;;;-143.90;45.90;72981.38;4899865;28;104574;-74
2024/04/01 07:07:50;;;;;;;;;8.33;6.00;;;;;-143.90;46.16;72983.44;4902087;28;102356;-73
2024/04/01 07:10:16;;;;;;;;;6.67;4.00;;;;;-143.90;45.57;72968.97;4904280;28;102509;-73
2024/04/01 07:12:42;;;;;;;;;11.33;5.00;;;;;-143.90;46.39;72958.66;4908426;28;102165;-73
2024/04/01 07:15:08;;;;;;;;;4.33;3.00;;;;;-143.90;45.88;72933.84;4893388;28;109056;-73
2024/04/01 07:17:34;;;;;;;;;2.00;1.33;;;;;-143.90;45.72;72923.53;4904430;28;104197;-73
2024/04/01 07:20:00;;;;;;;;;4.33;2.00;;;;;-143.90;44.55;72917.31;4900025;28;103011;-74
2024/04/01 07:22:26;;;;;;;;;1.00;1.00;;;;;-143.90;43.55;72931.78;4879885;28;103656;-73
2024/04/01 07:24:52;;;;;;;;;3.67;2.00;;;;;-143.90;43.02;72938.00;4890090;28;104761;-74
2024/04/01 07:27:17;;;;;;;;;5.67;1.00;;;;;-143.90;44.09;72938.00;4897161;28;102185;-73
2024/04/01 07:29:43;;;;;;;;;3.00;2.00;;;;;-143.90;43.57;72944.19;4903915;28;104497;-73
2024/04/01 07:32:09;;;;;;;;;4.33;2.00;;;;;-143.90;44.59;72935.91;4898798;28;102419;-74
2024/04/01 07:34:34;;;;;;;;;6.00;3.00;;;;;-143.90;44.87;72925.59;4908393;28;104561;-74
2024/04/01 07:37:00;;;;;;;;;5.00;3.00;;;;;-143.90;44.76;72878.06;4886341;28;101968;-73
2024/04/01 07:39:27;;;;;;;;;2.00;1.33;;;;;-143.90;43.87;72851.22;4892864;28;102420;-72
2024/04/01 07:41:53;;;;;;;;;4.00;2.00;;;;;-143.90;42.79;72816.06;4900699;28;102304;-73
2024/04/01 07:44:19;;;;;;;;;4.33;3.67;;;;;-143.90;43.02;72795.41;4898755;28;104383;-73
2024/04/01 07:46:44;;;;;;;;;4.00;3.67;;;;;-143.90;42.27;72807.81;4884917;28;102415;-74
2024/04/01 07:49:12;;;;;;;;;6.00;3.33;;;;;-143.90;42.31;72814.00;4897635;28;102509;-73
2024/04/01 07:51:37;;;;;;;;;4.00;2.33;;;;;-143.90;42.79;72807.81;4884299;28;102346;-73
2024/04/01 07:54:03;;;;;;;;;5.67;3.33;;;;;-143.90;42.65;72807.81;4893870;28;104883;-73
2024/04/01 07:56:30;;;;;;;;;8.00;2.67;;;;;-143.90;42.50;72801.63;4898216;28;102126;-73
2024/04/01 07:58:56;;;;;;;;;2.00;2.00;;;;;-143.90;42.54;72797.47;4890631;28;102230;-73
2024/04/01 08:01:22;;;;;;;;;4.67;2.67;;;;;-143.90;41.83;72803.69;4896691;28;103716;-72
2024/04/01 08:03:48;;;;;;;;;5.33;3.67;;;;;-143.90;41.79;72793.34;4895467;28;102643;-73
2024/04/01 08:06:14;;;;;;;;;4.00;2.00;;;;;-143.90;43.46;72764.44;4896969;28;102541;-73
2024/04/01 08:08:39;;;;;;;;;2.00;2.00;;;;;-143.90;41.19;72756.16;4890702;28;102631;-73
2024/04/01 08:11:05;;;;;;;;;4.00;2.67;;;;;-143.90;41.27;72762.34;4887439;28;102690;-73
2024/04/01 08:13:31;;;;;;;;;4.33;2.00;;;;;-143.90;41.36;72758.22;4901489;28;104532;-73
2024/04/01 08:16:01;;;;;;;;;4.00;3.67;;;;;-143.90;41.63;72758.22;4897723;28;102517;-74
2024/04/01 08:18:27;;;;;;;;;2.67;2.00;;;;;-143.90;41.43;72743.75;4898858;28;105088;-73
2024/04/01 08:20:52;;;;;;;;;2.33;2.00;;;;;-143.90;41.75;72749.97;4891820;28;102129;-74
2024/04/01 08:23:18;;;;;;;;;2.67;2.33;;;;;-143.90;41.17;72721.03;4893424;28;102878;-73
2024/04/01 08:25:43;;;;;;;;;5.33;1.67;;;;;-143.90;41.62;72712.78;4905878;28;102981;-74
2024/04/01 08:28:09;;;;;;;;;6.00;3.33;;;;;-143.90;41.70;72708.63;4896743;28;102037;-74
2024/04/01 08:30:34;;;;;;;;;6.00;4.00;;;;;-143.90;40.68;72710.72;4899860;28;102443;-74
2024/04/01 08:33:00;;;;;;;;;7.00;3.00;;;;;-143.90;40.86;72687.97;4889624;28;104527;-74
2024/04/01 08:35:26;;;;;;;;;11.00;4.00;;;;;-143.90;41.15;72675.59;4895968;28;102935;-73
2024/04/01 08:37:51;;;;;;;;;4.00;3.00;;;;;-143.90;40.39;72677.66;4897378;28;102625;-74
2024/04/01 08:40:17;;;;;;;;;2.33;1.33;;;;;-143.90;40.69;72648.72;4893289;28;102695;-73
2024/04/01 08:42:46;;;;;;;;;5.00;1.67;;;;;-143.90;41.55;72636.31;4902721;28;104455;-73
2024/04/01 08:45:13;;;;;;;;;4.33;3.00;;;;;-143.90;40.57;72621.88;4885138;28;102620;-73
2024/04/01 08:47:43;;;;;;;;;2.33;2.33;;;;;-143.90;41.08;72611.53;4894555;28;103647;-73
2024/04/01 08:50:21;;;;;;;;;7.67;2.00;;;;;-143.90;40.44;72597.06;4893317;28;102530;-72
2024/04/01 08:53:11;;;;;;;;;7.00;3.33;;;;;-143.90;41.55;72566.09;4892851;28;109248;-73
2024/04/01 08:55:37;;;;;;;;;3.33;2.00;;;;;-143.90;40.60;72539.22;4894417;28;102240;-73
2024/04/01 08:58:04;;;;;;;;;7.00;3.33;;;;;-143.90;38.98;72528.88;4898238;28;102296;-73
2024/04/01 09:00:30;;;;;;;;;4.00;3.00;;;;;-143.90;39.67;72512.38;4900533;28;102641;-73
2024/04/01 09:02:56;;;;;;;;;6.33;4.00;;;;;-143.90;39.03;72520.63;4891128;28;104425;-74
2024/04/01 09:05:21;;;;;;;;;5.33;3.00;;;;;-143.90;38.49;72497.91;4888514;28;102478;-73
2024/04/01 09:07:48;;;;;;;;;5.67;3.00;;;;;-143.90;38.35;72512.38;4899311;28;103292;-73
2024/04/01 09:10:19;;;;;;;;;8.33;5.00;;;;;-143.90;38.61;72516.50;4892434;28;103025;-73
2024/04/01 09:12:45;;;;;;;;;5.67;4.00;;;;;-143.90;37.69;72526.81;4891148;28;108948;-74
2024/04/01 09:15:12;;;;;;;;;5.00;4.00;;;;;-143.90;38.36;72535.09;4886947;28;102866;-74
2024/04/01 09:17:37;;;;;;;;;4.00;2.67;;;;;-143.90;38.22;72526.81;4897045;28;102631;-73
2024/04/01 09:20:04;;;;;;;;;4.33;2.33;;;;;-143.90;39.28;72522.69;4900859;28;103285;-73
2024/04/01 09:22:33;;;;;;;;;3.33;2.00;;;;;-143.90;38.76;72497.91;4895805;28;104792;-74
2024/04/01 09:24:59;;;;;;;;;9.67;4.00;;;;;-143.90;39.02;72473.09;4883747;28;103916;-73
2024/04/01 09:27:25;;;;;;;;;2.00;1.33;;;;;-143.90;37.76;72444.19;4892616;28;102248;-73
2024/04/01 09:29:52;;;;;;;;;7.67;3.33;;;;;-143.90;37.17;72435.91;4895530;28;102538;-74
2024/04/01 09:32:18;;;;;;;;;5.00;2.33;;;;;-143.90;36.22;72425.59;4896448;28;104018;-73
2024/04/01 09:34:44;;;;;;;;;11.00;6.33;;;;;-143.90;36.43;72435.91;4893698;28;102080;-74
2024/04/01 09:37:10;;;;;;;;;9.67;5.00;;;;;-143.90;37.15;72419.38;4887545;28;102294;-75
2024/04/01 09:39:36;;;;;;;;;9.33;5.67;;;;;-143.90;37.17;72411.13;4897986;28;104119;-74
2024/04/01 09:42:02;;;;;;;;;8.00;6.00;;;;;-143.90;36.27;72402.88;4901432;28;103151;-74
2024/04/01 09:44:34;;;;;;;;;8.67;5.00;;;;;-143.90;36.63;72390.47;4890473;28;104248;-74
2024/04/01 09:47:00;;;;;;;;;5.00;3.00;;;;;-143.90;36.46;72361.53;4889734;28;102391;-73
2024/04/01 09:49:27;;;;;;;;;9.67;6.00;;;;;-143.90;36.44;72353.28;4899382;28;102292;-74
2024/04/01 09:51:54;;;;;;;;;6.00;4.00;;;;;-143.90;37.54;72338.81;4897908;28;104561;-75
2024/04/01 09:54:19;;;;;;;;;6.00;3.33;;;;;-143.90;36.50;72345.03;4914328;28;102520;-75
2024/04/01 09:57:03;;;;;;;;;6.67;4.33;;;;;-143.90;36.29;72342.94;4896900;28;102716;-75
2024/04/01 09:59:50;;;;;;;;;4.33;4.00;;;;;-143.90;36.33;72353.28;4897458;28;104014;-77
2024/04/01 10:02:38;;;;;;;;;4.00;2.00;;;;;-143.90;36.03;72353.28;4895636;28;108992;-75
2024/04/01 10:05:45;;;;;;;;;5.00;3.00;;;;;-143.90;36.26;72367.75;4894473;28;102921;-76
2024/04/01 10:08:53;;;;;;;;;4.67;3.33;;;;;-143.90;37.14;72369.81;4897580;28;105219;-75
2024/04/01 10:11:48;;;;;;;;;4.00;2.00;;;;;-143.90;36.51;72355.34;4872220;28;102242;-75
2024/04/01 10:14:26;;;;;;;;;5.67;3.67;;;;;-143.90;36.53;72353.28;4892092;28;107914;-76
2024/04/01 10:17:03;;;;;;;;;5.33;3.00;;;;;-143.90;36.43;72332.63;4890261;28;102378;-76
2024/04/01 10:20:07;;;;;;;;;7.33;4.00;;;;;-143.90;36.27;72307.84;4896970;28;102802;-74
2024/04/01 10:23:22;;;;;;;;;4.00;1.67;;;;;-143.90;36.08;72289.25;4904944;28;102638;-74
2024/04/01 10:26:14;;;;;;;;;5.00;3.67;;;;;-143.90;35.81;72280.97;4853506;28;109306;-76
2024/04/01 10:28:58;;;;;;;;;6.00;3.00;;;;;-143.90;35.70;72270.66;4901054;28;102083;-76
2024/04/01 10:31:48;;;;;;;;;3.00;1.00;;;;;-143.90;35.67;72270.66;4899594;28;102230;-76
2024/04/01 10:34:17;;;;;;;;;3.00;2.00;;;;;-143.90;35.86;72266.50;4904396;28;102050;-75
2024/04/01 10:36:51;;;;;;;;;6.33;3.33;;;;;-143.90;35.06;72262.38;4907579;28;104717;-75
2024/04/01 10:39:20;;;;;;;;;5.33;4.00;;;;;-143.90;35.08;72252.06;4914729;28;102909;-75
2024/04/01 10:42:04;;;;;;;;;5.67;5.00;;;;;-143.90;35.43;72241.72;4903297;28;103808;-75
2024/04/01 10:44:56;;;;;;;;;3.00;1.00;;;;;-143.90;35.35;72237.59;4903109;28;102175;-75
2024/04/01 10:47:49;;;;;;;;;7.67;5.67;;;;;-143.90;34.24;72262.38;4902414;28;109886;-76
2024/04/01 10:50:36;;;;;;;;;4.00;3.00;;;;;-143.90;34.64;72239.66;4899698;28;102399;-76
2024/04/01 10:53:15;;;;;;;;;6.00;4.00;;;;;-143.90;35.41;72216.94;4893463;28;102314;-76
2024/04/01 10:56:02;;;;;;;;;4.00;3.00;;;;;-143.90;35.06;72214.88;4905176;28;102653;-76
2024/04/01 10:58:48;;;;;;;;;4.33;1.00;;;;;-143.90;33.98;72212.81;4918284;28;109019;-76
2024/04/01 11:01:32;;;;;;;;;6.00;4.67;;;;;-143.90;33.44;72216.94;4890713;28;102496;-75
2024/04/01 11:04:24;;;;;;;;;5.33;2.00;;;;;-143.90;33.93;72221.06;4900104;28;102634;-77
2024/04/01 11:07:22;;;;;;;;;4.00;3.00;;;;;-143.90;34.02;72233.47;4900343;28;102009;-77
2024/04/01 11:10:01;;;;;;;;;5.00;2.00;;;;;-143.90;33.59;72229.31;4832028;28;109164;-76
2024/04/01 11:12:36;;;;;;;;;5.67;3.33;;;;;-143.90;32.75;72249.97;4886182;28;102729;-74
2024/04/01 11:15:04;;;;;;;;;3.33;2.00;;;;;-143.90;34.19;72258.25;4891606;28;102518;-76